Time;durP1;ratioP1;P1;durP2;ratioP2;P2;SDS_P1;SDS_P2;PMS_P1;PMS_P2;Temp;Humidity;BMP_temperature;BMP_pressure;BME280_temperature;BME280_humidity;BME280_pressure;Samples;Min_cycle;Max_cycle;Signal;HPM_P1;HPM_P2
2023/12/01 00:00:33;;;;;;;4.88;2.63;;;0.10;99.90;;;;;;4950014;29;20031;-90
2023/12/01 00:02:58;;;;;;;9.15;3.30;;;0.10;99.90;;;;;;4947776;28;20032;-90
2023/12/01 00:05:24;;;;;;;5.07;2.92;;;0.10;99.90;;;;;;4941461;28;20058;-90
2023/12/01 00:07:50;;;;;;;11.75;3.17;;;0.00;99.90;;;;;;4949208;28;20015;-89
2023/12/01 00:10:15;;;;;;;7.60;2.78;;;0.00;99.90;;;;;;4946025;29;20035;-90
2023/12/01 00:12:42;;;;;;;7.38;2.95;;;0.00;99.90;;;;;;4945939;29;20044;-90
2023/12/01 00:15:08;;;;;;;10.88;2.92;;;0.00;99.90;;;;;;4946731;29;20019;-90
2023/12/01 00:17:34;;;;;;;5.28;3.05;;;0.00;99.90;;;;;;4947296;28;20079;-91
2023/12/01 00:20:00;;;;;;;9.25;2.78;;;0.00;99.90;;;;;;4956876;28;20027;-91
2023/12/01 00:22:25;;;;;;;5.53;2.55;;;0.00;99.90;;;;;;4966090;28;20031;-90
2023/12/01 00:24:51;;;;;;;4.65;2.70;;;0.00;99.90;;;;;;4961667;28;20031;-88
2023/12/01 00:27:17;;;;;;;5.15;2.75;;;-0.10;99.90;;;;;;4944241;28;20394;-90
2023/12/01 00:29:43;;;;;;;6.90;3.30;;;0.00;99.90;;;;;;4943217;29;20031;-90
2023/12/01 00:32:09;;;;;;;6.82;3.40;;;-0.10;99.90;;;;;;4946274;28;20133;-90
2023/12/01 00:34:35;;;;;;;10.27;3.70;;;-0.10;99.90;;;;;;4947003;28;20478;-90
2023/12/01 00:37:01;;;;;;;10.38;3.05;;;-0.10;99.90;;;;;;4945560;29;20039;-90
2023/12/01 00:39:27;;;;;;;5.43;2.83;;;-0.10;99.90;;;;;;4945662;29;20023;-90
2023/12/01 00:41:53;;;;;;;11.00;2.83;;;-0.10;99.90;;;;;;4944574;29;20050;-90
2023/12/01 00:44:18;;;;;;;5.10;2.72;;;-0.10;99.90;;;;;;4945983;28;20032;-90
2023/12/01 00:46:44;;;;;;;9.43;2.92;;;-0.10;99.90;;;;;;4946037;28;20031;-90
2023/12/01 00:49:11;;;;;;;9.23;3.30;;;-0.10;99.90;;;;;;4946198;28;20051;-91
2023/12/01 00:51:41;;;;;;;8.05;3.50;;;-0.20;99.90;;;;;;4953307;28;20038;-91
2023/12/01 00:54:07;;;;;;;8.00;2.83;;;-0.10;99.90;;;;;;4945173;28;20075;-89
2023/12/01 00:56:33;;;;;;;6.95;3.15;;;-0.10;99.90;;;;;;4942537;29;20027;-90
2023/12/01 00:58:58;;;;;;;5.38;2.80;;;-0.10;99.90;;;;;;4945021;29;20031;-89
2023/12/01 01:01:24;;;;;;;9.55;3.72;;;-0.10;99.90;;;;;;4942500;29;20031;-90
2023/12/01 01:03:50;;;;;;;12.25;2.92;;;-0.10;99.90;;;;;;4945429;29;20478;-90
2023/12/01 01:06:16;;;;;;;5.72;2.90;;;-0.10;99.90;;;;;;4945198;29;20023;-90
2023/12/01 01:08:41;;;;;;;8.40;3.72;;;-0.10;99.90;;;;;;4942293;29;20509;-90
2023/12/01 01:11:07;;;;;;;9.93;3.67;;;-0.20;99.90;;;;;;4942529;28;20042;-90
2023/12/01 01:13:33;;;;;;;9.13;4.28;;;-0.10;99.90;;;;;;4941851;29;20020;-90
2023/12/01 01:15:59;;;;;;;6.68;3.53;;;-0.20;99.90;;;;;;4943840;28;20027;-89
2023/12/01 01:18:25;;;;;;;6.28;3.10;;;-0.20;99.90;;;;;;4946522;29;20074;-90
2023/12/01 01:20:51;;;;;;;4.72;2.75;;;-0.20;99.90;;;;;;4949773;29;20027;-89
2023/12/01 01:23:16;;;;;;;10.57;3.13;;;-0.20;99.90;;;;;;4953274;29;20031;-90
2023/12/01 01:25:42;;;;;;;6.63;3.22;;;-0.20;99.90;;;;;;4953457;28;20020;-90
2023/12/01 01:28:08;;;;;;;9.43;3.20;;;-0.20;99.90;;;;;;4948962;28;20621;-89
2023/12/01 01:30:34;;;;;;;6.70;2.80;;;-0.30;99.90;;;;;;4948500;29;20042;-89
2023/12/01 01:32:59;;;;;;;8.93;2.90;;;-0.30;99.90;;;;;;4942790;29;20028;-90
2023/12/01 01:35:25;;;;;;;7.57;2.90;;;-0.30;99.90;;;;;;4944383;29;20023;-90
2023/12/01 01:37:51;;;;;;;5.28;2.95;;;-0.30;99.90;;;;;;4945371;28;20414;-90
2023/12/01 01:40:17;;;;;;;3.30;2.45;;;-0.30;99.90;;;;;;4945624;29;20024;-90
2023/12/01 01:42:43;;;;;;;4.40;2.17;;;-0.40;99.90;;;;;;4943062;28;20582;-90
2023/12/01 01:45:09;;;;;;;9.35;2.67;;;-0.40;99.90;;;;;;4946002;29;20032;-91
2023/12/01 01:47:36;;;;;;;8.63;2.63;;;-0.40;99.90;;;;;;4943095;28;20028;-90
2023/12/01 01:50:03;;;;;;;5.43;2.50;;;-0.40;99.90;;;;;;4945934;28;20027;-90
2023/12/01 01:52:29;;;;;;;5.90;2.63;;;-0.50;99.90;;;;;;4943169;28;20051;-90
2023/12/01 01:54:56;;;;;;;7.20;2.30;;;-0.50;99.90;;;;;;4944383;28;20111;-90
2023/12/01 01:57:22;;;;;;;7.72;2.60;;;-0.50;99.90;;;;;;4942995;29;20030;-90
2023/12/01 01:59:48;;;;;;;5.22;2.70;;;-0.50;99.90;;;;;;4951899;28;20119;-90
2023/12/01 02:02:14;;;;;;;6.55;2.60;;;-0.50;99.90;;;;;;4967722;28;20046;-90
2023/12/01 02:04:40;;;;;;;4.88;2.65;;;-0.50;99.90;;;;;;4967839;28;20035;-90
2023/12/01 02:07:08;;;;;;;6.13;2.42;;;-0.50;99.90;;;;;;4957741;29;20050;-90
2023/12/01 02:09:34;;;;;;;5.95;2.47;;;-0.50;99.90;;;;;;4946392;29;20542;-90
2023/12/01 02:12:00;;;;;;;2.60;1.92;;;-0.50;99.90;;;;;;4948120;29;20044;-90
2023/12/01 02:14:25;;;;;;;4.38;2.50;;;-0.50;99.90;;;;;;4948234;28;20046;-89
2023/12/01 02:16:51;;;;;;;6.95;2.38;;;-0.50;99.90;;;;;;4959520;28;20024;-90
2023/12/01 02:19:18;;;;;;;7.28;2.50;;;-0.50;99.90;;;;;;4951399;29;20082;-90
2023/12/01 02:21:45;;;;;;;5.68;1.90;;;-0.50;99.90;;;;;;4949199;29;20055;-90
2023/12/01 02:24:11;;;;;;;8.35;2.45;;;-0.50;99.90;;;;;;4947879;29;20020;-91
2023/12/01 02:26:37;;;;;;;3.38;2.05;;;-0.60;99.90;;;;;;4945370;29;20081;-90
2023/12/01 02:29:04;;;;;;;4.72;2.00;;;-0.50;99.90;;;;;;4947598;29;20047;-90
2023/12/01 02:31:31;;;;;;;4.78;2.30;;;-0.60;99.90;;;;;;4945205;29;20122;-90
2023/12/01 02:33:56;;;;;;;5.53;2.15;;;-0.60;99.90;;;;;;4944357;29;20325;-90
2023/12/01 02:36:22;;;;;;;5.43;2.38;;;-0.60;99.90;;;;;;4948386;28;20032;-90
2023/12/01 02:38:48;;;;;;;5.30;2.47;;;-0.60;99.90;;;;;;4945181;29;20024;-91
2023/12/01 02:41:18;;;;;;;5.97;2.60;;;-0.60;99.90;;;;;;4944792;29;20027;-90
2023/12/01 02:43:44;;;;;;;7.38;2.42;;;-0.60;99.90;;;;;;4947438;29;20545;-90
2023/12/01 02:46:13;;;;;;;4.70;2.30;;;-0.70;99.90;;;;;;4947554;29;20486;-90
2023/12/01 02:48:40;;;;;;;7.07;2.38;;;-0.70;99.90;;;;;;4946100;29;20032;-90
2023/12/01 02:51:09;;;;;;;3.20;2.10;;;-0.70;99.90;;;;;;4945116;29;20019;-90
2023/12/01 02:53:35;;;;;;;5.90;2.90;;;-0.60;99.90;;;;;;4946332;29;20042;-90
2023/12/01 02:56:01;;;;;;;5.00;2.90;;;-0.70;99.90;;;;;;4946713;29;20028;-90
2023/12/01 02:58:26;;;;;;;9.10;2.30;;;-0.60;99.90;;;;;;4945258;28;20035;-90
2023/12/01 03:00:52;;;;;;;4.82;2.42;;;-0.70;99.90;;;;;;4947918;28;20105;-90
2023/12/01 03:03:18;;;;;;;7.30;2.30;;;-0.60;99.90;;;;;;4947902;28;20015;-90
2023/12/01 03:05:44;;;;;;;7.13;2.13;;;-0.70;99.90;;;;;;4944947;28;20038;-90
2023/12/01 03:08:10;;;;;;;5.75;2.20;;;-0.60;99.90;;;;;;4947761;28;20020;-89
2023/12/01 03:10:35;;;;;;;4.88;2.30;;;-0.70;99.90;;;;;;4944830;28;20447;-89
2023/12/01 03:13:01;;;;;;;4.88;2.55;;;-0.60;99.90;;;;;;4944818;28;20047;-91
2023/12/01 03:15:27;;;;;;;4.22;2.08;;;-0.60;99.90;;;;;;4945086;28;20023;-92
2023/12/01 03:17:52;;;;;;;8.88;2.17;;;-0.60;99.90;;;;;;4945340;28;20094;-91
2023/12/01 03:20:18;;;;;;;5.05;1.65;;;-0.60;99.90;;;;;;4943680;29;20126;-89
2023/12/01 03:22:45;;;;;;;4.78;2.22;;;-0.60;99.90;;;;;;4944568;28;20087;-90
2023/12/01 03:25:11;;;;;;;4.32;1.90;;;-0.60;99.90;;;;;;4945218;29;20028;-89
2023/12/01 03:27:42;;;;;;;4.28;2.30;;;-0.60;99.90;;;;;;4945266;28;20082;-89
2023/12/01 03:30:18;;;;;;;4.50;2.30;;;-0.60;99.90;;;;;;4949407;29;20038;-90
2023/12/01 03:32:48;;;;;;;3.40;2.13;;;-0.60;99.90;;;;;;4946568;29;20082;-90
2023/12/01 03:35:17;;;;;;;13.10;2.58;;;-0.70;99.90;;;;;;4940956;29;20024;-91
2023/12/01 03:37:43;;;;;;;2.70;1.80;;;-0.70;99.90;;;;;;4949915;28;20031;-89
2023/12/01 03:40:13;;;;;;;5.40;2.35;;;-0.70;99.90;;;;;;4950719;28;20428;-90
2023/12/01 03:42:44;;;;;;;6.47;2.78;;;-0.70;99.90;;;;;;4938840;29;20032;-91
2023/12/01 03:45:13;;;;;;;3.28;2.05;;;-0.70;99.90;;;;;;4958967;29;20034;-90
2023/12/01 03:47:40;;;;;;;4.40;2.67;;;-0.70;99.90;;;;;;4956701;29;20046;-91
2023/12/01 03:50:11;;;;;;;5.43;2.95;;;-0.70;99.90;;;;;;4947404;29;20136;-91
2023/12/01 03:52:41;;;;;;;;;;;-0.70;99.90;;;;;;4950308;28;20417;-90
2023/12/01 03:55:07;;;;;;;5.07;2.47;;;-0.70;99.90;;;;;;4948623;28;19930;-90
2023/12/01 03:57:33;;;;;;;9.32;2.38;;;-0.70;99.90;;;;;;4950225;28;20103;-90
2023/12/01 03:59:59;;;;;;;4.47;2.22;;;-0.70;99.90;;;;;;4952644;28;20098;-90
2023/12/01 04:02:25;;;;;;;6.00;2.25;;;-0.70;99.90;;;;;;4938983;28;20541;-90
2023/12/01 04:04:50;;;;;;;4.72;2.10;;;-0.70;99.90;;;;;;4953340;28;20054;-90
2023/12/01 04:07:16;;;;;;;3.70;1.75;;;-0.70;99.90;;;;;;4947021;29;20035;-91
2023/12/01 04:09:42;;;;;;;5.00;2.33;;;-0.70;99.90;;;;;;4947369;29;20150;-90
2023/12/01 04:12:08;;;;;;;4.53;1.98;;;-0.70;99.90;;;;;;4946730;29;20043;-90
2023/12/01 04:14:34;;;;;;;4.22;1.90;;;-0.70;99.90;;;;;;4943584;29;20027;-90
2023/12/01 04:17:08;;;;;;;4.53;1.63;;;-0.70;99.90;;;;;;4945398;29;20039;-90
2023/12/01 04:19:38;;;;;;;2.92;1.95;;;-0.70;99.90;;;;;;4944730;29;20074;-91
2023/12/01 04:22:07;;;;;;;2.85;1.83;;;-0.80;99.90;;;;;;4943591;28;20024;-90
2023/12/01 04:24:33;;;;;;;6.60;2.60;;;-0.80;99.90;;;;;;4945585;28;20031;-89
2023/12/01 04:27:04;;;;;;;3.75;2.03;;;-0.80;99.90;;;;;;4945548;29;20032;-90
2023/12/01 04:29:30;;;;;;;2.83;1.70;;;-0.80;99.90;;;;;;4943589;28;20031;-90
2023/12/01 04:31:59;;;;;;;7.63;2.00;;;-0.90;99.90;;;;;;4944804;28;20431;-90
2023/12/01 04:34:26;;;;;;;3.05;2.05;;;-0.90;99.90;;;;;;4943870;29;20102;-90
2023/12/01 04:36:53;;;;;;;4.88;2.00;;;-0.90;99.90;;;;;;4947595;28;20034;-89
2023/12/01 04:39:20;;;;;;;4.28;1.98;;;-0.90;99.90;;;;;;4960482;28;20063;-91
2023/12/01 04:41:50;;;;;;;5.63;2.50;;;-0.90;99.90;;;;;;4964890;28;20031;-90
2023/12/01 04:44:15;;;;;;;4.80;2.78;;;-0.90;99.90;;;;;;4949355;29;20035;-92
2023/12/01 04:46:41;;;;;;;4.95;2.47;;;-0.90;99.90;;;;;;4950035;29;20032;-92
2023/12/01 04:49:08;;;;;;;8.10;2.45;;;-0.90;99.90;;;;;;4943436;28;20398;-92
2023/12/01 04:51:35;;;;;;;5.65;2.75;;;-0.80;99.90;;;;;;4947423;29;20035;-89
2023/12/01 04:54:06;;;;;;;6.00;2.45;;;-0.80;99.90;;;;;;4947920;29;20047;-89
2023/12/01 04:56:32;;;;;;;;;;;-0.80;99.90;;;;;;4938237;29;20035;-91
2023/12/01 04:58:58;;;;;;;5.53;2.92;;;-0.80;99.90;;;;;;4935912;29;19906;-89
2023/12/01 05:01:24;;;;;;;9.18;3.03;;;-0.80;99.90;;;;;;4942345;29;20028;-90
2023/12/01 05:03:49;;;;;;;4.68;2.60;;;-0.70;99.90;;;;;;4937408;29;20083;-91
2023/12/01 05:06:15;;;;;;;4.25;2.13;;;-0.80;99.90;;;;;;4935314;29;20067;-91
2023/12/01 05:08:41;;;;;;;5.28;2.28;;;-0.80;99.90;;;;;;4936496;29;20051;-90
2023/12/01 05:11:06;;;;;;;4.45;2.47;;;-0.80;99.90;;;;;;4935288;29;20039;-90
2023/12/01 05:13:32;;;;;;;4.53;2.40;;;-0.80;99.90;;;;;;4935386;29;20032;-90
2023/12/01 05:15:58;;;;;;;7.18;2.33;;;-0.80;99.90;;;;;;4935174;29;20479;-91
2023/12/01 05:18:23;;;;;;;4.10;2.28;;;-0.90;99.90;;;;;;4935401;29;20047;-90
2023/12/01 05:20:49;;;;;;;5.13;2.67;;;-0.80;99.90;;;;;;4936021;29;20034;-90
2023/12/01 05:23:15;;;;;;;6.15;2.40;;;-0.90;99.90;;;;;;4949185;29;20015;-90
2023/12/01 05:25:44;;;;;;;4.60;2.55;;;-0.90;99.90;;;;;;4951879;29;20036;-90
2023/12/01 05:28:11;;;;;;;3.80;2.35;;;-0.90;99.90;;;;;;4940641;29;20031;-89
2023/12/01 05:30:41;;;;;;;6.43;2.60;;;-0.90;99.90;;;;;;4935781;29;20043;-90
2023/12/01 05:33:07;;;;;;;7.65;2.63;;;-1.00;99.90;;;;;;4935820;29;20488;-90
2023/12/01 05:35:37;;;;;;;4.18;2.30;;;-1.10;99.90;;;;;;4934973;29;20043;-91
2023/12/01 05:38:06;;;;;;;3.30;2.40;;;-1.00;99.90;;;;;;4934991;29;20031;-90
2023/12/01 05:40:34;;;;;;;5.18;2.47;;;-1.00;99.90;;;;;;4936862;29;20031;-90
2023/12/01 05:43:00;;;;;;;5.68;2.40;;;-1.10;99.90;;;;;;4938930;29;20039;-90
2023/12/01 05:45:33;;;;;;;7.07;2.65;;;-1.10;99.90;;;;;;4939151;29;20019;-90
2023/12/01 05:48:00;;;;;;;11.35;3.20;;;-1.10;99.90;;;;;;4939803;29;20035;-91
2023/12/01 05:50:28;;;;;;;6.63;3.17;;;-1.10;99.90;;;;;;4942021;29;20082;-90
2023/12/01 05:52:56;;;;;;;6.57;3.10;;;-1.10;99.90;;;;;;4938899;29;20039;-90
2023/12/01 05:55:27;;;;;;;8.70;4.07;;;-1.10;99.90;;;;;;4938516;29;20047;-91
2023/12/01 05:57:54;;;;;;;6.90;3.67;;;-1.10;99.90;;;;;;4938643;29;20027;-90
2023/12/01 06:00:30;;;;;;;11.88;3.70;;;-1.10;99.90;;;;;;4938466;29;20027;-91
2023/12/01 06:03:08;;;;;;;6.32;3.50;;;-1.00;99.90;;;;;;4938585;29;20501;-90
2023/12/01 06:05:35;;;;;;;9.95;5.80;;;-1.00;99.90;;;;;;4938502;29;20039;-91
2023/12/01 06:08:02;;;;;;;6.18;3.97;;;-1.00;99.90;;;;;;4938357;29;20032;-90
2023/12/01 06:10:30;;;;;;;5.82;3.40;;;-1.00;99.90;;;;;;4938511;29;20123;-91
2023/12/01 06:12:56;;;;;;;8.35;3.55;;;-1.00;99.90;;;;;;4939422;29;20048;-91
2023/12/01 06:15:24;;;;;;;9.18;3.95;;;-1.00;99.90;;;;;;4938386;29;20085;-90
2023/12/01 06:17:51;;;;;;;7.80;3.50;;;-0.90;99.90;;;;;;4938799;29;20031;-90
2023/12/01 06:20:19;;;;;;;7.63;4.47;;;-0.90;99.90;;;;;;4941381;29;20024;-90
2023/12/01 06:22:48;;;;;;;7.45;4.32;;;-0.90;99.90;;;;;;4941970;29;20028;-90
2023/12/01 06:25:20;;;;;;;7.95;3.92;;;-0.90;99.90;;;;;;4943562;29;20031;-91
2023/12/01 06:27:46;;;;;;;6.93;3.38;;;-0.90;99.90;;;;;;4939757;29;20055;-90
2023/12/01 06:30:14;;;;;;;12.65;4.40;;;-0.90;99.90;;;;;;4938059;29;20123;-90
2023/12/01 06:32:44;;;;;;;5.50;3.42;;;-0.90;99.90;;;;;;4938123;29;20040;-90
2023/12/01 06:35:12;;;;;;;12.38;4.30;;;-0.90;99.90;;;;;;4938478;29;20071;-90
2023/12/01 06:37:41;;;;;;;10.07;4.30;;;-0.80;99.90;;;;;;4938969;29;20483;-89
2023/12/01 06:40:11;;;;;;;8.52;4.22;;;-0.80;99.90;;;;;;4939419;29;20028;-90
2023/12/01 06:42:44;;;;;;;8.23;4.10;;;-0.80;99.90;;;;;;4938203;29;20071;-90
2023/12/01 06:45:10;;;;;;;18.42;4.18;;;-0.80;99.90;;;;;;4938015;29;20104;-90
2023/12/01 06:47:38;;;;;;;5.75;3.80;;;-0.80;99.90;;;;;;4938019;29;20028;-90
2023/12/01 06:50:05;;;;;;;9.68;4.40;;;-0.80;99.90;;;;;;4937636;29;20031;-90
2023/12/01 06:52:30;;;;;;;6.90;4.18;;;-0.80;99.90;;;;;;4953928;28;20047;-90
2023/12/01 06:54:56;;;;;;;8.18;4.10;;;-0.80;99.90;;;;;;4954331;28;20051;-90
2023/12/01 06:57:22;;;;;;;8.65;4.30;;;-0.80;99.90;;;;;;4956335;28;20046;-92
2023/12/01 06:59:47;;;;;;;8.57;4.72;;;-0.80;99.90;;;;;;4956529;28;20019;-91
2023/12/01 07:02:17;;;;;;;8.05;4.05;;;-0.80;99.90;;;;;;4957408;29;20376;-90
2023/12/01 07:04:44;;;;;;;11.63;5.43;;;-0.80;99.90;;;;;;4975097;28;20031;-91
2023/12/01 07:07:11;;;;;;;12.57;4.75;;;-0.80;99.90;;;;;;4971972;28;20286;-91
2023/12/01 07:09:38;;;;;;;8.45;4.50;;;-0.80;99.90;;;;;;4957561;28;20475;-91
2023/12/01 07:12:05;;;;;;;14.68;8.00;;;-0.80;99.90;;;;;;4957272;28;20440;-90
2023/12/01 07:14:31;;;;;;;11.70;5.95;;;-0.80;99.90;;;;;;4957801;28;20027;-91
2023/12/01 07:16:56;;;;;;;7.20;4.13;;;-0.80;99.90;;;;;;4973435;28;20027;-92
2023/12/01 07:19:22;;;;;;;9.93;4.63;;;-0.90;99.90;;;;;;4979914;28;20031;-92
2023/12/01 07:21:48;;;;;;;7.15;4.18;;;-0.90;99.90;;;;;;4967538;28;20038;-90
2023/12/01 07:24:14;;;;;;;11.35;5.43;;;-0.90;99.90;;;;;;4955678;28;20035;-90
2023/12/01 07:26:39;;;;;;;9.02;4.18;;;-0.80;99.90;;;;;;4955918;28;20038;-90
2023/12/01 07:29:06;;;;;;;7.32;3.83;;;-0.90;99.90;;;;;;4955468;28;20486;-90
2023/12/01 07:31:35;;;;;;;8.10;4.43;;;-0.90;99.90;;;;;;4951203;29;20043;-90
2023/12/01 07:34:01;;;;;;;7.88;4.45;;;-0.90;99.90;;;;;;4941409;29;20024;-91
2023/12/01 07:36:28;;;;;;;11.32;5.28;;;-0.90;99.90;;;;;;4952996;29;20035;-90
2023/12/01 07:38:53;;;;;;;8.77;4.40;;;-0.90;99.90;;;;;;4948834;29;20026;-90
2023/12/01 07:41:21;;;;;;;14.75;4.70;;;-0.90;99.90;;;;;;4946289;29;20110;-90
2023/12/01 07:43:46;;;;;;;11.23;4.50;;;-0.90;99.90;;;;;;4944226;29;20154;-90
2023/12/01 07:46:12;;;;;;;8.43;5.10;;;-0.90;99.90;;;;;;4955014;29;20043;-91
2023/12/01 07:48:38;;;;;;;10.88;4.15;;;-0.90;99.90;;;;;;4951901;29;20035;-90
2023/12/01 07:51:04;;;;;;;8.20;4.28;;;-0.90;99.90;;;;;;4953292;29;20483;-91
2023/12/01 07:53:30;;;;;;;12.07;4.57;;;-0.90;99.90;;;;;;4959823;29;20479;-90
2023/12/01 07:55:56;;;;;;;11.15;4.93;;;-0.90;99.90;;;;;;4956947;29;20137;-92
2023/12/01 07:58:21;;;;;;;11.95;4.50;;;-0.90;99.90;;;;;;4962449;29;20082;-92
2023/12/01 08:00:47;;;;;;;10.00;4.82;;;-0.90;99.90;;;;;;4967754;29;20031;-92
2023/12/01 08:03:13;;;;;;;8.20;4.40;;;-0.80;99.90;;;;;;4961532;28;20446;-91
2023/12/01 08:05:39;;;;;;;8.25;4.55;;;-0.80;99.90;;;;;;4957166;29;20047;-92
2023/12/01 08:08:05;;;;;;;8.57;4.63;;;-0.80;99.90;;;;;;4948806;29;20503;-92
2023/12/01 08:10:32;;;;;;;8.38;4.32;;;-0.80;99.90;;;;;;4956624;29;20027;-90
2023/12/01 08:12:58;;;;;;;10.80;4.63;;;-0.80;99.90;;;;;;4955846;29;20181;-91
2023/12/01 08:15:24;;;;;;;8.00;4.43;;;-0.80;99.90;;;;;;4956020;29;20023;-91
2023/12/01 08:17:50;;;;;;;8.15;4.28;;;-0.80;99.90;;;;;;4963988;29;20485;-92
2023/12/01 08:20:19;;;;;;;7.00;4.22;;;-0.70;99.90;;;;;;4961562;29;20023;-91
2023/12/01 08:22:46;;;;;;;9.65;4.50;;;-0.70;99.90;;;;;;4958118;29;20375;-92
2023/12/01 08:25:15;;;;;;;6.57;4.03;;;-0.70;99.90;;;;;;4951847;29;20103;-92
2023/12/01 08:27:41;;;;;;;7.28;3.83;;;-0.70;99.90;;;;;;4943910;29;20031;-92
2023/12/01 08:30:08;;;;;;;8.38;4.00;;;-0.70;99.90;;;;;;4948747;29;20027;-91
2023/12/01 08:32:34;;;;;;;8.07;4.05;;;-0.70;99.90;;;;;;4954989;29;20031;-92
2023/12/01 08:35:00;;;;;;;8.05;4.32;;;-0.80;99.90;;;;;;4955119;29;20086;-92
2023/12/01 08:37:26;;;;;;;9.00;4.60;;;-0.80;99.90;;;;;;4958312;29;20027;-91
2023/12/01 08:39:51;;;;;;;7.22;3.72;;;-0.80;99.90;;;;;;4959840;29;20089;-92
2023/12/01 08:42:18;;;;;;;8.63;4.75;;;-0.80;99.90;;;;;;4958281;29;20047;-91
2023/12/01 08:44:44;;;;;;;10.25;3.95;;;-0.80;99.90;;;;;;4958602;29;20027;-91
2023/12/01 08:47:12;;;;;;;10.88;4.85;;;-0.80;99.90;;;;;;4977814;28;20058;-89
2023/12/01 08:49:38;;;;;;;10.00;4.43;;;-0.80;99.90;;;;;;4972103;28;20032;-89
2023/12/01 08:52:04;;;;;;;11.80;4.78;;;-0.80;99.90;;;;;;5397175;23;20078;-89
2023/12/01 09:00:03;;;;;;;;;;;-0.70;99.90;;;;;;4837492;29;20061;-91
2023/12/01 09:02:28;;;;;;;15.65;5.55;;;-0.70;99.90;;;;;;4825747;29;19989;-91
2023/12/01 09:04:54;;;;;;;10.50;5.05;;;-0.60;99.90;;;;;;4832567;29;20037;-91
2023/12/01 09:07:20;;;;;;;13.90;5.55;;;-0.50;99.90;;;;;;4850764;29;20037;-91
2023/12/01 09:09:45;;;;;;;14.05;5.43;;;-0.50;99.90;;;;;;4851765;29;20053;-92
2023/12/01 09:12:11;;;;;;;9.18;4.55;;;-0.50;99.90;;;;;;4845218;29;20045;-91
2023/12/01 09:14:37;;;;;;;8.82;4.68;;;-0.40;99.90;;;;;;4861687;29;20022;-91
2023/12/01 09:17:06;;;;;;;7.20;3.72;;;-0.40;99.90;;;;;;4845698;29;20030;-93
2023/12/01 09:19:31;;;;;;;8.73;4.70;;;-0.40;99.90;;;;;;4859729;29;20429;-92
2023/12/01 09:21:57;;;;;;;8.85;4.25;;;-0.30;99.90;;;;;;4845767;29;20078;-91
2023/12/01 09:24:23;;;;;;;8.52;4.05;;;-0.30;99.90;;;;;;4838661;29;20030;-92
2023/12/01 09:26:49;;;;;;;11.18;5.25;;;-0.40;99.90;;;;;;4844336;29;20026;-91
2023/12/01 09:29:15;;;;;;;9.60;4.65;;;-0.30;99.90;;;;;;4847405;29;20101;-91
2023/12/01 09:31:50;;;;;;;11.57;4.45;;;-0.30;99.90;;;;;;4846187;29;20070;-91
2023/12/01 09:34:20;;;;;;;9.93;4.47;;;-0.30;99.90;;;;;;4847672;29;20081;-91
2023/12/01 09:36:46;;;;;;;7.68;4.07;;;-0.30;99.90;;;;;;4844628;29;20034;-92
2023/12/01 09:39:12;;;;;;;9.45;4.70;;;-0.20;99.90;;;;;;4850152;29;20022;-91
2023/12/01 09:41:39;;;;;;;8.15;4.50;;;-0.30;99.90;;;;;;4834676;29;20037;-91
2023/12/01 09:44:07;;;;;;;10.63;4.85;;;-0.20;99.90;;;;;;4845151;29;20030;-92
2023/12/01 09:46:35;;;;;;;7.38;3.90;;;-0.20;99.90;;;;;;4845503;29;20102;-92
2023/12/01 09:49:05;;;;;;;7.60;4.13;;;-0.10;99.90;;;;;;4832939;29;20014;-92
2023/12/01 09:51:36;;;;;;;12.18;5.68;;;0.00;99.90;;;;;;4858421;29;20053;-92
2023/12/01 09:54:03;;;;;;;12.63;8.00;;;0.00;99.90;;;;;;4845876;29;20038;-92
2023/12/01 09:56:30;;;;;;;10.23;5.97;;;0.00;99.90;;;;;;4844731;29;20121;-91
2023/12/01 09:58:56;;;;;;;9.63;5.20;;;0.00;99.90;;;;;;4853573;29;20050;-93
2023/12/01 10:01:23;;;;;;;10.30;5.75;;;0.10;99.90;;;;;;4853518;29;20033;-91
2023/12/01 10:03:49;;;;;;;8.35;4.85;;;0.20;99.90;;;;;;4850917;29;20029;-92
2023/12/01 10:06:14;;;;;;;14.98;6.10;;;0.20;99.90;;;;;;4868924;29;20037;-92
2023/12/01 10:08:40;;;;;;;10.95;5.03;;;0.20;99.90;;;;;;4859799;29;20104;-92
2023/12/01 10:11:25;;;;;;;9.60;4.93;;;0.30;99.90;;;;;;4859435;29;20055;-93
2023/12/01 10:13:52;;;;;;;9.88;5.13;;;0.40;99.90;;;;;;4837165;29;20515;-93
2023/12/01 10:16:19;;;;;;;9.20;4.35;;;0.60;99.90;;;;;;4859264;29;20041;-91
2023/12/01 10:18:59;;;;;;;8.50;4.35;;;0.90;99.90;;;;;;4858010;29;20037;-92
2023/12/01 10:21:49;;;;;;;12.02;4.20;;;1.20;99.90;;;;;;4858092;29;20037;-91
2023/12/01 10:24:22;;;;;;;6.75;3.72;;;1.50;99.90;;;;;;4847935;29;20089;-92
2023/12/01 10:26:53;;;;;;;6.68;4.07;;;1.70;99.90;;;;;;4873529;29;20021;-93
2023/12/01 10:29:32;;;;;;;6.95;3.58;;;1.80;99.90;;;;;;4877853;29;20108;-90
2023/12/01 10:31:59;;;;;;;5.35;3.50;;;1.90;99.90;;;;;;4840702;29;20058;-92
2023/12/01 10:34:25;;;;;;;8.00;3.92;;;1.80;99.90;;;;;;4862972;29;20140;-92
2023/12/01 10:36:54;;;;;;;6.53;3.88;;;1.90;99.90;;;;;;4861911;29;20520;-92
2023/12/01 10:39:27;;;;;;;7.70;4.53;;;1.80;99.90;;;;;;4865107;29;20025;-93
2023/12/01 10:41:55;;;;;;;6.20;3.90;;;2.00;99.90;;;;;;4857845;29;20029;-90
2023/12/01 10:44:27;;;;;;;6.35;3.70;;;2.10;99.90;;;;;;4846651;29;20040;-92
2023/12/01 10:46:55;;;;;;;4.97;3.22;;;2.30;99.90;;;;;;4859198;29;20561;-92
2023/12/01 10:49:22;;;;;;;9.75;3.83;;;2.30;99.90;;;;;;4864515;29;20029;-93
2023/12/01 10:51:52;;;;;;;8.93;3.58;;;2.30;99.90;;;;;;4862052;29;20044;-94
2023/12/01 10:54:21;;;;;;;5.95;3.53;;;2.30;99.90;;;;;;4864436;29;20022;-92
2023/12/01 10:57:09;;;;;;;7.63;3.60;;;2.20;99.90;;;;;;4862687;29;20034;-92
2023/12/01 10:59:38;;;;;;;4.65;3.00;;;2.20;99.90;;;;;;4862369;29;20045;-94
2023/12/01 11:02:05;;;;;;;10.80;3.10;;;2.20;99.90;;;;;;4855307;29;20041;-93
2023/12/01 11:04:33;;;;;;;4.78;3.13;;;2.10;99.90;;;;;;4867947;29;20026;-92
2023/12/01 11:07:23;;;;;;;6.50;3.10;;;2.10;99.90;;;;;;4872796;29;20033;-93
2023/12/01 11:10:09;;;;;;;4.63;2.90;;;2.00;99.90;;;;;;4865988;29;20025;-93
2023/12/01 11:13:17;;;;;;;5.68;3.75;;;1.90;99.90;;;;;;4864244;29;20581;-95
2023/12/01 11:15:44;;;;;;;7.03;4.10;;;1.80;99.90;;;;;;4866513;29;20029;-92
2023/12/01 11:18:11;;;;;;;5.82;3.50;;;1.80;99.90;;;;;;4864329;29;20055;-93
2023/12/01 11:20:46;;;;;;;6.28;3.78;;;1.80;99.90;;;;;;4861996;29;20086;-93
2023/12/01 11:23:12;;;;;;;6.20;3.40;;;1.80;99.90;;;;;;4860715;29;20033;-92
2023/12/01 11:25:53;;;;;;;7.28;4.10;;;1.80;99.90;;;;;;4861511;29;20041;-92
2023/12/01 11:31:57;;;;;;;8.07;4.45;;;1.90;99.90;;;;;;4861602;29;20451;-92
2023/12/01 11:34:04;;;;;;;6.80;3.78;;;1.90;99.90;;;;;;4857006;29;20043;-92
2023/12/01 11:36:31;;;;;;;9.18;4.80;;;2.00;99.90;;;;;;4861794;29;20018;-92
2023/12/01 11:39:08;;;;;;;9.73;4.38;;;2.10;99.90;;;;;;4863139;29;20041;-93
2023/12/01 11:41:34;;;;;;;9.10;4.57;;;2.20;99.90;;;;;;4872658;29;20061;-92
2023/12/01 11:44:07;;;;;;;10.60;4.90;;;2.20;99.90;;;;;;4877754;29;20026;-91
2023/12/01 11:46:33;;;;;;;7.93;4.50;;;2.30;99.90;;;;;;4872860;29;20105;-93
2023/12/01 11:48:59;;;;;;;5.35;3.38;;;2.30;99.90;;;;;;4863075;29;20021;-93
2023/12/01 11:51:26;;;;;;;6.50;3.63;;;2.50;99.90;;;;;;4863323;29;20058;-92
2023/12/01 11:54:00;;;;;;;8.13;3.60;;;2.70;99.90;;;;;;4861053;29;20044;-92
2023/12/01 11:56:32;;;;;;;5.38;3.42;;;3.20;99.90;;;;;;4857529;29;20026;-94
2023/12/01 11:58:59;;;;;;;3.55;2.55;;;3.90;99.90;;;;;;4849203;29;20053;-93
2023/12/01 12:01:25;;;;;;;6.32;3.30;;;4.80;99.90;;;;;;4870215;29;20025;-93
2023/12/01 12:03:55;;;;;;;6.72;3.10;;;5.60;99.90;;;;;;4874118;29;20064;-92
2023/12/01 12:06:22;;;;;;;5.53;4.13;;;6.10;99.90;;;;;;4870981;29;20485;-92
2023/12/01 12:08:48;;;;;;;5.78;2.70;;;6.40;99.90;;;;;;4863895;29;20045;-92
2023/12/01 12:11:15;;;;;;;4.85;2.60;;;6.70;99.90;;;;;;4866343;29;20026;-92
2023/12/01 12:13:41;;;;;;;7.80;2.65;;;7.20;99.90;;;;;;4876704;29;20053;-93
2023/12/01 12:16:07;;;;;;;8.65;3.53;;;7.60;99.90;;;;;;4882471;29;20026;-92
2023/12/01 12:18:34;;;;;;;4.10;2.40;;;8.10;99.90;;;;;;4870081;29;20030;-90
2023/12/01 12:21:04;;;;;;;4.50;2.30;;;8.50;99.90;;;;;;4863419;29;20062;-92
2023/12/01 12:23:30;;;;;;;;;;;8.80;99.90;;;;;;4864432;29;20109;-92
2023/12/01 12:26:25;;;;;;;4.28;2.10;;;9.10;99.90;;;;;;4864266;29;19943;-92
2023/12/01 12:28:57;;;;;;;4.00;2.15;;;9.00;99.90;;;;;;4866475;29;20029;-92
2023/12/01 12:31:27;;;;;;;8.98;2.88;;;8.90;99.90;;;;;;4857132;29;20038;-91
2023/12/01 12:33:56;;;;;;;9.18;2.35;;;9.30;99.90;;;;;;4827857;29;20492;-94
2023/12/01 12:36:28;;;;;;;3.60;1.88;;;9.80;99.90;;;;;;4847110;29;20493;-94
2023/12/01 12:38:58;;;;;;;2.45;1.38;;;10.30;99.90;;;;;;4849093;29;20030;-94
2023/12/01 12:41:33;;;;;;;1.70;1.50;;;10.60;99.90;;;;;;4869828;29;20129;-94
2023/12/01 12:44:00;;;;;;;3.60;2.60;;;11.00;99.90;;;;;;4879854;29;20029;-96
2023/12/01 12:46:27;;;;;;;4.28;1.98;;;11.40;99.90;;;;;;4879773;29;20085;-94
2023/12/01 12:48:58;;;;;;;1.48;1.30;;;11.50;99.40;;;;;;4879090;29;20056;-96
2023/12/01 12:51:25;;;;;;;4.07;2.40;;;11.70;98.20;;;;;;4868297;29;20037;-92
2023/12/01 12:53:52;;;;;;;2.20;1.60;;;12.00;96.60;;;;;;4854284;29;20121;-91
2023/12/01 12:56:20;;;;;;;3.17;1.77;;;12.20;94.90;;;;;;4857521;29;20029;-92
2023/12/01 12:58:47;;;;;;;1.65;1.33;;;12.30;93.40;;;;;;4860651;29;20057;-91